createdAt,value
2019-04-14T00:01:30.393Z,12.25
2019-04-14T00:04:37.864Z,12.55
2019-04-14T00:07:40.558Z,13.18
2019-04-14T00:10:42.211Z,12.88
2019-04-14T00:13:43.608Z,12.25
2019-04-14T00:16:44.991Z,11.53
2019-04-14T00:19:46.344Z,11.18
2019-04-14T00:22:48.904Z,12.03
2019-04-14T00:25:50.430Z,12.28
2019-04-14T00:29:11.588Z,11.40
2019-04-14T00:32:14.096Z,11.08
2019-04-14T00:35:23.333Z,11.57
2019-04-14T00:38:26.634Z,11.43
2019-04-14T00:41:39.429Z,10.85
2019-04-14T00:44:41.059Z,10.35
2019-04-14T00:47:54.806Z,8.67
2019-04-14T00:50:51.670Z,10.85
2019-04-14T00:53:53.714Z,10.95
2019-04-14T00:56:56.220Z,12.35
2019-04-14T00:59:57.769Z,10.98
2019-04-14T01:02:59.033Z,11.90
2019-04-14T01:06:01.158Z,11.80
2019-04-14T01:09:06.432Z,12.43
2019-04-14T01:12:08.262Z,10.35
2019-04-14T01:15:09.578Z,10.88
2019-04-14T01:18:12.566Z,11.25
2019-04-14T01:21:15.236Z,9.85
2019-04-14T01:24:16.913Z,9.78
2019-04-14T01:27:18.914Z,9.23
2019-04-14T01:30:20.475Z,9.35
2019-04-14T01:33:25.035Z,9.73
2019-04-14T01:36:27.649Z,9.68
2019-04-14T01:39:28.983Z,9.70
2019-04-14T01:42:31.076Z,9.05
2019-04-14T01:45:32.510Z,9.15
2019-04-14T01:48:34.618Z,9.75
2019-04-14T01:51:41.719Z,9.33
2019-04-14T01:54:45.299Z,9.78
2019-04-14T01:58:05.453Z,9.08
2019-04-14T02:01:14.945Z,9.48
2019-04-14T02:04:16.358Z,9.83
2019-04-14T02:07:18.809Z,9.68
2019-04-14T02:10:21.663Z,8.20
2019-04-14T02:13:24.629Z,9.15
2019-04-14T02:16:34.855Z,9.48
2019-04-14T02:19:30.353Z,9.50
2019-04-14T02:22:33.352Z,9.93
2019-04-14T02:25:36.011Z,10.75
2019-04-14T02:28:37.757Z,9.48
2019-04-14T02:32:06.891Z,9.90
2019-04-14T02:35:10.889Z,9.43
2019-04-14T02:41:18.386Z,9.40
2019-04-14T02:44:24.296Z,9.83
2019-04-14T02:47:45.442Z,9.15
2019-04-14T02:53:39.393Z,9.43
2019-04-14T02:56:28.077Z,9.35
2019-04-14T02:59:35.497Z,9.73
2019-04-14T03:02:38.579Z,9.53
2019-04-14T03:05:49.910Z,9.63
2019-04-14T03:11:48.416Z,8.95
2019-04-14T03:14:57.051Z,9.53
2019-04-14T03:21:21.700Z,9.25
2019-04-14T03:27:34.525Z,9.20
2019-04-14T03:31:12.030Z,9.38
2019-04-14T03:43:01.701Z,10.20
2019-04-14T03:46:01.064Z,10.00
2019-04-14T03:49:19.770Z,9.78
2019-04-14T03:54:58.213Z,10.68
2019-04-14T03:57:45.544Z,10.20
2019-04-14T04:00:49.012Z,9.83
2019-04-14T04:03:50.599Z,9.65
2019-04-14T04:06:53.049Z,10.58
2019-04-14T04:09:56.568Z,10.23
2019-04-14T04:12:57.896Z,10.08
2019-04-14T04:16:16.440Z,11.00
2019-04-14T04:19:25.677Z,10.20
2019-04-14T04:22:30.400Z,10.70
2019-04-14T04:25:33.705Z,11.18
2019-04-14T04:28:47.107Z,10.30
2019-04-14T04:32:05.744Z,9.90
2019-04-14T04:35:09.094Z,9.88
2019-04-14T04:38:13.736Z,10.32
2019-04-14T04:41:15.377Z,9.73
2019-04-14T04:44:17.930Z,10.58
2019-04-14T04:47:19.408Z,10.60
2019-04-14T04:50:21.374Z,10.88
2019-04-14T04:53:22.887Z,10.13
2019-04-14T04:56:25.369Z,9.83
2019-04-14T04:59:27.751Z,10.25
2019-04-14T05:02:29.144Z,10.68
2019-04-14T05:06:09.143Z,10.03
2019-04-14T05:09:12.468Z,9.85
2019-04-14T05:12:15.861Z,10.18
2019-04-14T05:15:22.651Z,9.68
2019-04-14T05:18:24.789Z,10.75
2019-04-14T05:21:26.096Z,10.65
2019-04-14T05:24:29.062Z,10.15
2019-04-14T05:27:30.447Z,10.08
2019-04-14T05:30:32.876Z,10.08
2019-04-14T05:33:34.622Z,10.95
2019-04-14T05:36:36.744Z,9.83
2019-04-14T05:39:38.110Z,10.50
2019-04-14T05:42:40.650Z,10.05
2019-04-14T05:45:43.688Z,10.30
2019-04-14T05:48:45.329Z,10.63
2019-04-14T05:51:48.125Z,10.13
2019-04-14T05:54:49.547Z,10.53
2019-04-14T05:57:52.504Z,9.28
2019-04-14T06:00:55.824Z,10.63
2019-04-14T06:03:58.158Z,9.65
2019-04-14T06:06:59.725Z,9.78
2019-04-14T06:10:01.015Z,9.53
2019-04-14T06:13:02.672Z,10.35
2019-04-14T06:16:04.299Z,10.63
2019-04-14T06:19:05.590Z,10.10
2019-04-14T06:22:07.219Z,10.03
2019-04-14T06:25:09.215Z,10.23
2019-04-14T06:28:10.782Z,10.20
2019-04-14T06:31:30.503Z,10.75
2019-04-14T06:34:47.404Z,8.05
2019-04-14T06:37:56.409Z,10.25
2019-04-14T06:41:00.267Z,10.20
2019-04-14T06:44:01.679Z,10.53
2019-04-14T06:47:03.817Z,10.95
2019-04-14T06:50:05.580Z,10.30
2019-04-14T06:53:07.231Z,10.32
2019-04-14T06:56:08.858Z,10.18
2019-04-14T06:59:10.342Z,10.85
2019-04-14T07:02:11.621Z,9.95
2019-04-14T07:05:13.201Z,9.65
2019-04-14T07:08:14.591Z,10.30
2019-04-14T07:11:16.197Z,9.55
2019-04-14T07:14:17.646Z,9.80
2019-04-14T07:17:19.158Z,9.53
2019-04-14T07:20:20.540Z,9.68
2019-04-14T07:23:22.539Z,10.03
2019-04-14T07:26:23.805Z,10.05
2019-04-14T07:29:27.007Z,9.33
2019-04-14T07:32:30.332Z,9.23
2019-04-14T07:35:37.080Z,9.70
2019-04-14T07:38:49.190Z,10.05
2019-04-14T07:42:09.364Z,9.10
2019-04-14T07:45:12.577Z,10.15
2019-04-14T07:48:24.817Z,9.20
2019-04-14T07:51:34.534Z,9.53
2019-04-14T07:54:43.960Z,9.43
2019-04-14T07:58:03.698Z,7.05
2019-04-14T08:01:13.549Z,9.68
2019-04-14T08:04:16.727Z,7.40
2019-04-14T08:07:18.310Z,9.53
2019-04-14T08:10:19.593Z,9.60
2019-04-14T08:13:21.065Z,8.70
2019-04-14T08:16:22.331Z,8.55
2019-04-14T08:19:23.632Z,8.68
2019-04-14T08:22:25.002Z,9.03
2019-04-14T08:25:26.832Z,9.00
2019-04-14T08:28:28.078Z,8.20
2019-04-14T08:31:29.366Z,8.05
2019-04-14T08:34:32.751Z,8.08
2019-04-14T08:37:34.787Z,7.90
2019-04-14T08:40:37.281Z,7.37
2019-04-14T08:43:46.241Z,8.00
2019-04-14T08:46:53.034Z,8.00
2019-04-14T08:49:56.207Z,8.53
2019-04-14T08:52:59.532Z,8.78
2019-04-14T08:56:18.079Z,8.65
2019-04-14T08:59:33.512Z,7.83
2019-04-14T09:02:48.622Z,7.40
2019-04-14T09:06:01.247Z,9.25
2019-04-14T09:09:07.429Z,8.65
2019-04-14T09:12:15.728Z,8.18
2019-04-14T09:15:14.079Z,8.10
2019-04-14T09:18:15.552Z,7.75
2019-04-14T09:21:17.214Z,7.80
2019-04-14T09:24:19.404Z,8.18
2019-04-14T09:27:20.672Z,7.83
2019-04-14T09:30:22.370Z,7.42
2019-04-14T09:33:23.795Z,6.87
2019-04-14T09:36:25.921Z,6.90
2019-04-14T09:39:27.706Z,7.00
2019-04-14T09:42:29.210Z,7.12
2019-04-14T09:45:30.490Z,6.83
2019-04-14T09:48:31.802Z,6.65
2019-04-14T09:51:33.185Z,6.72
2019-04-14T09:54:34.847Z,6.62
2019-04-14T09:57:36.113Z,6.72
2019-04-14T10:00:39.650Z,6.97
2019-04-14T10:03:41.450Z,7.17
2019-04-14T10:06:43.114Z,7.15
2019-04-14T10:09:44.430Z,6.83
2019-04-14T10:12:45.817Z,6.33
2019-04-14T10:15:47.152Z,7.00
2019-04-14T10:18:48.570Z,6.53
2019-04-14T10:21:49.979Z,6.12
2019-04-14T10:24:51.747Z,6.37
2019-04-14T10:27:52.971Z,6.05
2019-04-14T10:30:54.477Z,6.00
2019-04-14T10:33:55.796Z,6.45
2019-04-14T10:36:58.458Z,6.62
2019-04-14T10:39:59.787Z,9.00
2019-04-14T10:43:01.254Z,6.53
2019-04-14T10:46:02.546Z,6.47
2019-04-14T10:49:03.979Z,6.05
2019-04-14T10:52:05.474Z,5.87
2019-04-14T10:55:07.180Z,6.00
2019-04-14T10:58:08.486Z,5.83
2019-04-14T11:01:09.992Z,5.53
2019-04-14T11:04:11.271Z,5.90
2019-04-14T11:07:21.074Z,5.72
2019-04-14T11:10:22.480Z,5.97
2019-04-14T11:13:24.001Z,6.35
2019-04-14T11:16:25.666Z,5.55
2019-04-14T11:19:27.138Z,5.45
2019-04-14T11:22:28.654Z,5.45
2019-04-14T11:25:30.302Z,6.08
2019-04-14T11:28:31.576Z,5.25
2019-04-14T11:31:38.083Z,5.62
2019-04-14T11:34:41.937Z,5.70
2019-04-14T11:37:46.358Z,5.42
2019-04-14T11:40:49.548Z,5.45
2019-04-14T11:43:51.065Z,5.70
2019-04-14T11:46:53.201Z,5.20
2019-04-14T11:49:54.563Z,5.00
2019-04-14T11:52:56.064Z,5.22
2019-04-14T11:55:57.706Z,4.80
2019-04-14T11:58:59.186Z,5.22
2019-04-14T12:02:02.385Z,5.45
2019-04-14T12:05:06.303Z,4.62
2019-04-14T12:08:24.751Z,4.90
2019-04-14T12:11:26.215Z,5.55
2019-04-14T12:14:27.921Z,4.83
2019-04-14T12:17:29.867Z,5.22
2019-04-14T12:20:31.277Z,4.95
2019-04-14T12:23:32.762Z,5.25
2019-04-14T12:26:34.053Z,4.90
2019-04-14T12:29:37.458Z,5.40
2019-04-14T12:32:38.864Z,4.70
2019-04-14T12:35:41.312Z,5.05
2019-04-14T12:38:43.314Z,4.72
2019-04-14T12:42:02.475Z,4.83
2019-04-14T12:45:06.286Z,4.67
2019-04-14T12:48:09.776Z,4.97
2019-04-14T12:51:16.210Z,5.00
2019-04-14T12:54:17.722Z,4.53
2019-04-14T12:57:20.943Z,5.08
2019-04-14T13:00:27.412Z,4.72
2019-04-14T13:03:29.128Z,4.80
2019-04-14T13:06:31.462Z,4.65
2019-04-14T13:09:32.749Z,4.53
2019-04-14T13:12:34.343Z,4.50
2019-04-14T13:15:35.739Z,4.78
2019-04-14T13:18:38.239Z,4.97
2019-04-14T13:21:40.556Z,5.05
2019-04-14T13:24:42.181Z,4.67
2019-04-14T13:27:43.488Z,4.92
2019-04-14T13:30:46.391Z,5.15
2019-04-14T13:33:48.673Z,5.00
2019-04-14T13:36:50.956Z,4.95
2019-04-14T13:39:52.230Z,5.05
2019-04-14T13:42:56.069Z,4.80
2019-04-14T13:45:59.912Z,5.22
2019-04-14T13:49:01.253Z,5.17
2019-04-14T13:52:02.542Z,4.97
2019-04-14T13:55:04.245Z,4.90
2019-04-14T13:58:05.615Z,5.00
2019-04-14T14:01:07.500Z,4.60
2019-04-14T14:04:08.795Z,5.30
2019-04-14T14:07:10.580Z,4.45
2019-04-14T14:10:12.176Z,5.25
2019-04-14T14:13:32.593Z,5.15
2019-04-14T14:16:52.317Z,4.90
2019-04-14T14:19:55.678Z,5.33
2019-04-14T14:23:04.910Z,5.12
2019-04-14T14:26:25.097Z,6.03
2019-04-14T14:29:26.390Z,5.50
2019-04-14T14:32:30.122Z,5.50
2019-04-14T14:35:31.470Z,6.00
2019-04-14T14:38:32.806Z,5.72
2019-04-14T14:41:34.347Z,5.15
2019-04-14T14:44:40.554Z,5.33
2019-04-14T14:47:43.939Z,5.87
2019-04-14T14:51:03.730Z,5.85
2019-04-14T14:54:05.200Z,6.08
2019-04-14T14:57:06.599Z,5.62
2019-04-14T15:00:10.723Z,6.20
2019-04-14T15:03:12.117Z,6.90
2019-04-14T15:06:13.555Z,5.47
2019-04-14T15:09:15.517Z,6.00
2019-04-14T15:12:17.227Z,6.10
2019-04-14T15:15:20.476Z,6.65
2019-04-14T15:18:22.043Z,6.28
2019-04-14T15:21:23.317Z,8.58
2019-04-14T15:24:24.662Z,6.30
2019-04-14T15:27:25.941Z,6.22
2019-04-14T15:30:27.433Z,6.50
2019-04-14T15:33:28.714Z,6.70
2019-04-14T15:36:30.506Z,6.37
2019-04-14T15:39:31.814Z,6.03
2019-04-14T15:42:35.704Z,6.75
2019-04-14T15:45:37.236Z,7.10
2019-04-14T15:48:38.684Z,6.87
2019-04-14T15:51:40.064Z,7.17
2019-04-14T15:54:41.897Z,7.47
2019-04-14T15:57:45.229Z,7.22
2019-04-14T16:01:05.426Z,6.92
2019-04-14T16:04:25.900Z,7.30
2019-04-14T16:07:35.250Z,8.20
2019-04-14T16:10:48.127Z,7.25
2019-04-14T16:14:08.403Z,7.03
2019-04-14T16:17:28.776Z,7.53
2019-04-14T16:20:32.487Z,8.33
2019-04-14T16:23:34.346Z,8.58
2019-04-14T16:26:40.446Z,8.15
2019-04-14T16:29:52.750Z,8.43
2019-04-14T16:33:06.408Z,8.33
2019-04-14T16:36:08.186Z,8.25
2019-04-14T16:39:09.768Z,8.75
2019-04-14T16:42:14.318Z,9.18
2019-04-14T16:45:15.790Z,8.93
2019-04-14T16:48:17.220Z,9.43
2019-04-14T16:51:23.242Z,10.85
2019-04-14T16:54:32.745Z,11.25
2019-04-14T16:57:52.532Z,11.77
2019-04-14T17:01:02.709Z,11.70
2019-04-14T17:04:04.202Z,11.83
2019-04-14T17:07:05.494Z,12.20
2019-04-14T17:10:06.784Z,12.28
2019-04-14T17:13:08.746Z,13.38
2019-04-14T17:16:12.139Z,14.10
2019-04-14T17:19:27.559Z,13.83
2019-04-14T17:22:30.994Z,13.08
2019-04-14T17:25:38.722Z,14.65
2019-04-14T17:28:42.096Z,13.80
2019-04-14T17:31:52.204Z,14.85
2019-04-14T17:35:06.972Z,16.30
2019-04-14T17:38:13.950Z,16.37
2019-04-14T17:41:23.428Z,15.23
2019-04-14T17:44:29.771Z,15.65
2019-04-14T17:47:39.282Z,17.50
2019-04-14T17:50:42.514Z,12.28
2019-04-14T17:54:04.548Z,14.25
2019-04-14T17:57:24.598Z,14.50
2019-04-14T18:00:30.889Z,10.55
2019-04-14T18:03:34.202Z,14.10
2019-04-14T18:06:37.463Z,14.85
2019-04-14T18:09:40.685Z,15.15
2019-04-14T18:13:00.804Z,15.50
2019-04-14T18:16:22.245Z,16.57
2019-04-14T18:19:28.017Z,25.40
2019-04-14T18:22:29.301Z,39.73
2019-04-14T18:25:31.472Z,89.72
2019-04-14T18:28:39.721Z,25.82
2019-04-14T18:31:43.274Z,21.52
2019-04-14T18:34:50.710Z,18.85
2019-04-14T18:37:54.821Z,33.85
2019-04-14T18:41:08.002Z,47.23
2019-04-14T18:44:11.433Z,25.17
2019-04-14T18:47:29.907Z,22.27
2019-04-14T18:50:33.386Z,17.98
2019-04-14T18:53:42.884Z,28.62
2019-04-14T18:56:52.401Z,41.70
2019-04-14T19:00:11.730Z,25.02
2019-04-14T19:03:13.797Z,22.80
2019-04-14T19:06:15.244Z,18.32
2019-04-14T19:09:19.331Z,22.00
2019-04-14T19:12:25.378Z,49.90
2019-04-14T19:15:34.832Z,24.77
2019-04-14T19:18:38.368Z,22.45
2019-04-14T19:21:39.931Z,123.50
2019-04-14T19:24:41.617Z,62.43
2019-04-14T19:27:48.563Z,36.70
2019-04-14T19:30:49.858Z,27.73
2019-04-14T19:33:53.579Z,30.12
2019-04-14T19:36:55.796Z,39.58
2019-04-14T19:39:57.086Z,27.00
2019-04-14T19:42:59.116Z,39.00
2019-04-14T19:46:00.734Z,31.23
2019-04-14T19:49:02.325Z,36.93
2019-04-14T19:52:03.811Z,38.92
2019-04-14T19:55:05.394Z,34.03
2019-04-14T19:58:07.274Z,20.85
2019-04-14T20:01:08.552Z,21.02
2019-04-14T20:04:10.142Z,21.95
2019-04-14T20:07:11.768Z,19.70
2019-04-14T20:10:13.258Z,17.12
2019-04-14T20:13:15.651Z,15.38
2019-04-14T20:16:31.218Z,15.23
2019-04-14T20:19:52.315Z,16.97
2019-04-14T20:26:34.651Z,15.32
2019-04-14T20:29:38.222Z,10.55
2019-04-14T20:32:41.393Z,19.80
2019-04-14T20:35:42.988Z,16.35
2019-04-14T20:38:44.703Z,14.30
2019-04-14T20:41:46.988Z,15.35
2019-04-14T20:44:48.348Z,14.43
2019-04-14T20:47:49.642Z,15.43
2019-04-14T20:50:50.920Z,16.50
2019-04-14T20:53:52.907Z,13.48
2019-04-14T20:56:54.211Z,15.60
2019-04-14T20:59:56.091Z,16.62
2019-04-14T21:03:15.911Z,17.42
2019-04-14T21:06:35.826Z,15.85
2019-04-14T21:09:44.927Z,17.70
2019-04-14T21:13:03.457Z,15.53
2019-04-14T21:16:12.878Z,16.55
2019-04-14T21:19:17.617Z,52.90
2019-04-14T21:22:23.869Z,24.82
2019-04-14T21:25:27.134Z,20.77
2019-04-14T21:28:34.193Z,17.50
2019-04-14T21:31:40.437Z,24.60
2019-04-14T21:34:58.983Z,19.15
2019-04-14T21:38:05.293Z,14.18
2019-04-14T21:41:08.529Z,15.28
2019-04-14T21:44:10.070Z,12.70
2019-04-14T21:47:11.405Z,13.72
2019-04-14T21:50:12.913Z,11.85
2019-04-14T21:56:35.311Z,9.65
2019-04-14T21:59:53.483Z,10.35
2019-04-14T22:03:11.787Z,10.43
2019-04-14T22:06:15.209Z,8.95
2019-04-14T22:09:18.631Z,8.58
2019-04-14T22:12:20.212Z,9.58
2019-04-14T22:15:21.869Z,14.25
2019-04-14T22:18:23.162Z,12.28
2019-04-14T22:21:29.376Z,11.57
2019-04-14T22:28:35.185Z,10.75
2019-04-14T22:31:36.535Z,10.58
2019-04-14T22:34:38.305Z,11.05
2019-04-14T22:37:42.545Z,10.23
2019-04-14T22:40:43.989Z,10.32
2019-04-14T22:43:45.286Z,10.70
2019-04-14T22:46:46.674Z,10.15
2019-04-14T22:49:47.966Z,11.05
2019-04-14T22:52:49.345Z,9.90
2019-04-14T22:55:50.961Z,10.15
2019-04-14T22:58:54.225Z,9.98
2019-04-14T23:01:59.850Z,9.58
2019-04-14T23:05:08.283Z,10.13
2019-04-14T23:08:14.279Z,10.80
2019-04-14T23:11:23.440Z,10.03
2019-04-14T23:14:26.629Z,10.90
2019-04-14T23:17:32.938Z,9.90
2019-04-14T23:20:36.119Z,10.38
2019-04-14T23:23:39.330Z,9.65
2019-04-14T23:30:21.548Z,9.08
2019-04-14T23:33:22.939Z,8.60
2019-04-14T23:36:24.702Z,9.38
2019-04-14T23:39:25.990Z,9.10
2019-04-14T23:42:27.281Z,8.88
2019-04-14T23:45:28.661Z,8.95
2019-04-14T23:48:30.058Z,8.33
2019-04-14T23:51:31.333Z,9.10
2019-04-14T23:54:32.789Z,8.53
2019-04-14T23:57:34.063Z,8.25
